Time;durP1;ratioP1;P1;durP2;ratioP2;P2;SDS_P1;SDS_P2;PMS_P1;PMS_P2;Temp;Humidity;BMP_temperature;BMP_pressure;BME280_temperature;BME280_humidity;BME280_pressure;Samples;Min_cycle;Max_cycle;Signal;HPM_P1;HPM_P2
2022/06/18 00:00:18;;;;;;;6.57;3.60;;;24.10;55.80;;;;;;6143868;28;81203;-67
2022/06/18 00:03:19;;;;;;;5.53;3.03;;;24.10;55.90;;;;;;6151492;28;80181;-69
2022/06/18 00:06:19;;;;;;;5.95;3.70;;;24.20;55.90;;;;;;6142112;28;80627;-68
2022/06/18 00:09:20;;;;;;;5.35;3.95;;;24.10;55.80;;;;;;6130418;28;80368;-67
2022/06/18 00:15:41;;;;;;;6.18;3.53;;;24.10;55.90;;;;;;6129260;28;80323;-67
2022/06/18 00:18:41;;;;;;;8.70;3.65;;;24.10;56.00;;;;;;6148296;28;80690;-68
2022/06/18 00:21:42;;;;;;;10.45;3.53;;;24.10;55.90;;;;;;6134800;28;79882;-68
2022/06/18 00:24:42;;;;;;;9.95;3.90;;;24.10;55.90;;;;;;6133777;28;80835;-68
2022/06/18 00:27:43;;;;;;;6.15;3.53;;;24.10;55.80;;;;;;6133861;28;81066;-70
2022/06/18 00:30:43;;;;;;;7.72;3.70;;;24.10;55.70;;;;;;6133510;28;80614;-67
2022/06/18 00:33:44;;;;;;;6.88;3.63;;;24.10;55.80;;;;;;6142458;28;80849;-68
2022/06/18 00:36:44;;;;;;;4.55;3.25;;;24.10;55.80;;;;;;6139257;28;80649;-68
2022/06/18 00:39:45;;;;;;;8.70;3.53;;;24.10;55.80;;;;;;6141325;28;80924;-68
2022/06/18 00:42:45;;;;;;;5.35;3.58;;;24.10;55.70;;;;;;6136698;28;83103;-69
2022/06/18 00:45:46;;;;;;;5.65;3.10;;;24.10;55.80;;;;;;6136998;28;82089;-68
2022/06/18 00:48:46;;;;;;;8.80;3.83;;;24.10;55.80;;;;;;6133969;28;80586;-68
2022/06/18 00:51:47;;;;;;;5.72;3.35;;;24.10;55.80;;;;;;6138750;28;80795;-68
2022/06/18 00:54:48;;;;;;;4.22;3.00;;;24.10;55.70;;;;;;6138675;28;80732;-68
2022/06/18 00:57:48;;;;;;;6.45;3.58;;;24.10;55.70;;;;;;6149533;28;81846;-68
2022/06/18 01:00:49;;;;;;;4.78;3.10;;;24.10;55.70;;;;;;6136361;28;83406;-68
2022/06/18 01:03:49;;;;;;;4.45;3.20;;;24.10;55.80;;;;;;6133798;28;80656;-68
2022/06/18 01:06:50;;;;;;;5.00;2.95;;;24.10;55.80;;;;;;6151364;28;80490;-67
2022/06/18 01:09:50;;;;;;;5.03;3.20;;;24.10;55.80;;;;;;6147398;28;83102;-67
2022/06/18 01:12:51;;;;;;;6.30;3.25;;;24.00;55.80;;;;;;6148554;28;81764;-68
2022/06/18 01:15:51;;;;;;;6.13;3.60;;;24.10;55.80;;;;;;6139381;28;80849;-68
2022/06/18 01:18:52;;;;;;;4.55;3.03;;;24.00;55.80;;;;;;6133004;28;83301;-68
2022/06/18 01:21:52;;;;;;;5.35;3.53;;;24.10;55.90;;;;;;6123823;28;80865;-68
2022/06/18 01:24:53;;;;;;;6.13;3.13;;;24.10;55.90;;;;;;6135840;28;83264;-68
2022/06/18 01:27:54;;;;;;;5.07;2.70;;;24.10;55.90;;;;;;6134473;28;80802;-68
2022/06/18 01:30:58;;;;;;;4.70;3.22;;;24.00;55.90;;;;;;6135552;28;82868;-67
2022/06/18 01:33:58;;;;;;;6.82;3.97;;;24.10;55.90;;;;;;6146914;28;83354;-67
2022/06/18 01:37:02;;;;;;;5.13;3.28;;;24.00;55.80;;;;;;6141956;28;82781;-68
2022/06/18 01:40:04;;;;;;;10.55;3.22;;;24.00;55.80;;;;;;6137064;28;83421;-67
2022/06/18 01:43:05;;;;;;;6.40;3.50;;;24.00;55.80;;;;;;6140446;28;83432;-66
2022/06/18 01:46:05;;;;;;;6.15;3.33;;;24.00;55.90;;;;;;6138216;28;82702;-67
2022/06/18 01:49:08;;;;;;;5.05;2.95;;;24.00;55.90;;;;;;6134718;28;83585;-70
2022/06/18 01:52:09;;;;;;;6.07;3.28;;;24.00;56.00;;;;;;6116878;28;81373;-69
2022/06/18 01:55:12;;;;;;;6.25;3.60;;;24.10;56.00;;;;;;6127596;28;83058;-69
2022/06/18 01:58:14;;;;;;;6.18;3.38;;;24.10;55.90;;;;;;6131055;28;82559;-68
2022/06/18 02:01:14;;;;;;;4.05;2.97;;;24.00;55.80;;;;;;6134748;28;83070;-68
2022/06/18 02:04:16;;;;;;;3.97;2.60;;;24.10;56.00;;;;;;6141998;28;82660;-68
2022/06/18 02:07:18;;;;;;;4.78;2.50;;;24.10;56.00;;;;;;6126609;28;81898;-67
2022/06/18 02:10:18;;;;;;;4.05;2.65;;;24.10;56.00;;;;;;6144799;28;80739;-67
2022/06/18 02:13:18;;;;;;;6.18;3.33;;;24.00;55.90;;;;;;6134500;28;82880;-67
2022/06/18 02:16:19;;;;;;;5.38;3.33;;;24.00;55.90;;;;;;6116651;28;82936;-67
2022/06/18 02:19:19;;;;;;;4.80;2.78;;;24.00;55.90;;;;;;6131443;28;80399;-67
2022/06/18 02:22:20;;;;;;;5.32;3.30;;;24.00;55.90;;;;;;6136978;28;80355;-69
2022/06/18 02:25:20;;;;;;;4.00;2.63;;;24.00;56.10;;;;;;6132629;28;80327;-68
2022/06/18 02:28:21;;;;;;;5.30;2.92;;;24.00;56.10;;;;;;6134132;28;80565;-68
2022/06/18 02:31:21;;;;;;;5.93;3.45;;;24.00;55.90;;;;;;6127881;28;83683;-68
2022/06/18 02:34:23;;;;;;;4.13;2.83;;;24.00;55.90;;;;;;6152271;28;81701;-68
2022/06/18 02:37:24;;;;;;;7.85;3.10;;;24.00;55.90;;;;;;6137629;28;80413;-68
2022/06/18 02:40:24;;;;;;;4.78;3.22;;;24.00;55.90;;;;;;6143185;28;81276;-69
2022/06/18 02:43:25;;;;;;;5.13;3.30;;;24.00;55.80;;;;;;6155084;28;80350;-69
2022/06/18 02:46:25;;;;;;;7.40;3.63;;;24.00;55.90;;;;;;6134963;28;82417;-69
2022/06/18 02:49:26;;;;;;;4.10;3.13;;;24.00;55.90;;;;;;6134314;28;83575;-70
2022/06/18 02:52:26;;;;;;;5.40;3.30;;;24.00;55.80;;;;;;6135591;28;80939;-68
2022/06/18 02:55:27;;;;;;;6.85;4.43;;;24.00;55.70;;;;;;6141029;28;83157;-68
2022/06/18 02:58:27;;;;;;;6.97;3.20;;;23.90;55.60;;;;;;6140663;28;81704;-67
2022/06/18 03:01:29;;;;;;;5.35;3.47;;;23.90;55.60;;;;;;6140100;28;80776;-67
2022/06/18 03:04:29;;;;;;;4.65;3.30;;;23.90;55.60;;;;;;6136246;28;83277;-67
2022/06/18 03:07:30;;;;;;;5.00;3.08;;;24.00;55.60;;;;;;6135561;28;81842;-67
2022/06/18 03:13:49;;;;;;;5.20;3.42;;;23.90;55.50;;;;;;6122928;28;83530;-68
2022/06/18 03:16:50;;;;;;;5.78;2.95;;;23.90;55.50;;;;;;6133911;28;83442;-67
2022/06/18 03:19:50;;;;;;;5.18;3.45;;;24.00;55.60;;;;;;6138305;28;82262;-67
2022/06/18 03:22:51;;;;;;;4.63;3.15;;;23.90;55.60;;;;;;6128968;28;80625;-68
2022/06/18 03:25:52;;;;;;;3.60;2.70;;;23.90;55.60;;;;;;6113494;28;81885;-68
2022/06/18 03:28:52;;;;;;;3.67;3.15;;;24.00;55.60;;;;;;6133255;28;80452;-67
2022/06/18 03:31:53;;;;;;;4.55;2.85;;;23.90;55.60;;;;;;6138404;28;83475;-67
2022/06/18 03:34:55;;;;;;;3.42;2.53;;;24.00;55.80;;;;;;6135229;28;82636;-68
2022/06/18 03:37:55;;;;;;;5.53;2.95;;;23.90;55.70;;;;;;6132433;28;82653;-68
2022/06/18 03:40:56;;;;;;;5.53;2.80;;;23.90;55.70;;;;;;6137062;28;80792;-67
2022/06/18 03:43:57;;;;;;;6.13;3.05;;;23.90;55.80;;;;;;6133316;28;82925;-67
2022/06/18 03:47:01;;;;;;;5.03;2.88;;;24.00;55.90;;;;;;6147820;28;82516;-69
2022/06/18 03:50:06;;;;;;;6.60;3.10;;;24.00;55.90;;;;;;6129620;28;80778;-68
2022/06/18 03:53:09;;;;;;;6.90;3.22;;;24.00;55.80;;;;;;6122686;28;82084;-67
2022/06/18 03:56:09;;;;;;;6.25;3.03;;;24.00;55.70;;;;;;6128523;28;82375;-67
2022/06/18 03:59:15;;;;;;;5.65;3.53;;;24.00;55.60;;;;;;6129565;28;82851;-67
2022/06/18 04:02:15;;;;;;;6.50;3.35;;;24.00;55.70;;;;;;6126903;28;82972;-66
2022/06/18 04:05:17;;;;;;;4.32;2.83;;;24.00;55.60;;;;;;6126864;28;82733;-66
2022/06/18 04:08:20;;;;;;;4.38;2.65;;;24.00;55.60;;;;;;6139488;28;83735;-67
2022/06/18 04:11:29;;;;;;;6.38;2.80;;;24.00;55.60;;;;;;6126904;28;81182;-66
2022/06/18 04:14:30;;;;;;;2.97;2.60;;;24.00;55.70;;;;;;6133187;28;81865;-66
2022/06/18 04:17:38;;;;;;;3.20;2.22;;;24.00;55.60;;;;;;6134018;28;82858;-66
2022/06/18 04:20:40;;;;;;;5.30;3.28;;;24.00;55.90;;;;;;6132838;28;87676;-67
2022/06/18 04:23:44;;;;;;;4.45;2.75;;;24.00;55.90;;;;;;6128369;28;83650;-65
2022/06/18 04:26:45;;;;;;;4.07;2.70;;;24.00;56.10;;;;;;6118136;28;87210;-65
2022/06/18 04:29:47;;;;;;;6.15;2.90;;;24.00;55.90;;;;;;6126511;28;83483;-66
2022/06/18 04:32:48;;;;;;;4.85;3.15;;;24.00;56.10;;;;;;6126258;28;83394;-66
2022/06/18 04:35:48;;;;;;;5.28;3.03;;;24.00;56.10;;;;;;6118706;28;87094;-66
2022/06/18 04:38:49;;;;;;;6.65;2.95;;;24.00;55.90;;;;;;6117587;28;82973;-66
2022/06/18 04:41:59;;;;;;;6.30;2.90;;;24.00;56.00;;;;;;6135374;28;81429;-66
2022/06/18 04:45:01;;;;;;;3.80;2.88;;;24.00;56.10;;;;;;6131275;28;83622;-66
2022/06/18 04:48:10;;;;;;;5.95;2.60;;;24.00;56.00;;;;;;6135011;28;82994;-67
2022/06/18 04:51:10;;;;;;;6.93;3.25;;;24.00;56.20;;;;;;6136598;28;83289;-68
2022/06/18 04:54:12;;;;;;;8.02;3.85;;;24.10;56.10;;;;;;6126258;28;80525;-67
2022/06/18 04:57:12;;;;;;;6.28;3.30;;;24.10;56.30;;;;;;6134207;28;82963;-75
2022/06/18 05:00:14;;;;;;;4.95;3.28;;;24.10;56.60;;;;;;6135412;28;81350;-67
2022/06/18 05:03:38;;;;;;;8.95;3.45;;;24.10;56.00;;;;;;6126757;28;80510;-67
2022/06/18 05:06:58;;;;;;;7.35;3.53;;;24.10;56.20;;;;;;6134105;28;83058;-68
2022/06/18 05:10:13;;;;;;;12.18;3.05;;;24.00;56.20;;;;;;6119956;28;83363;-67
2022/06/18 05:13:52;;;;;;;9.07;3.38;;;24.10;56.00;;;;;;6121394;28;85937;-69
2022/06/18 05:17:04;;;;;;;9.73;3.13;;;24.10;56.50;;;;;;6127400;28;82462;-68
2022/06/18 05:20:07;;;;;;;7.68;3.67;;;24.00;56.30;;;;;;6132252;28;83142;-69
2022/06/18 05:23:13;;;;;;;4.70;3.00;;;24.10;56.30;;;;;;6129365;28;82792;-71
2022/06/18 05:26:13;;;;;;;5.38;3.40;;;24.10;56.30;;;;;;6124284;28;83019;-69
2022/06/18 05:29:15;;;;;;;15.32;3.58;;;24.10;56.30;;;;;;6130595;28;82820;-66
2022/06/18 05:32:15;;;;;;;7.90;3.20;;;24.10;56.30;;;;;;6124049;28;82922;-68
2022/06/18 05:35:16;;;;;;;4.90;2.83;;;24.10;56.00;;;;;;6131438;28;81719;-68
2022/06/18 05:38:17;;;;;;;6.55;3.00;;;24.10;55.90;;;;;;6131049;28;83062;-70
2022/06/18 05:41:17;;;;;;;5.85;3.08;;;24.10;56.00;;;;;;6131944;28;83587;-67
2022/06/18 05:44:18;;;;;;;11.88;3.80;;;24.10;56.10;;;;;;6134036;28;82729;-67
2022/06/18 05:47:19;;;;;;;3.90;2.83;;;24.20;56.20;;;;;;6134960;28;81656;-67
2022/06/18 05:50:20;;;;;;;7.65;3.05;;;24.20;56.10;;;;;;6135504;28;80418;-67
2022/06/18 05:53:22;;;;;;;5.43;3.45;;;24.20;56.00;;;;;;6132167;28;81832;-67
2022/06/18 05:56:31;;;;;;;6.82;3.03;;;24.10;56.00;;;;;;6130509;28;83398;-67
2022/06/18 05:59:58;;;;;;;;;;;24.20;56.00;;;;;;6132482;28;82281;-68
2022/06/18 06:02:58;;;;;;;4.78;2.83;;;24.20;56.00;;;;;;6133906;28;80799;-66
2022/06/18 06:05:59;;;;;;;3.47;2.53;;;24.20;56.40;;;;;;6117573;28;80409;-67
2022/06/18 06:09:00;;;;;;;7.38;2.90;;;24.10;56.20;;;;;;6131262;28;80134;-66
2022/06/18 06:12:00;;;;;;;2.85;2.40;;;24.10;56.30;;;;;;6136250;28;80198;-67
2022/06/18 06:15:01;;;;;;;6.53;2.95;;;24.10;56.20;;;;;;6130242;28;83353;-67
2022/06/18 06:18:01;;;;;;;6.47;3.00;;;24.20;56.10;;;;;;6137233;28;80498;-68
2022/06/18 06:21:02;;;;;;;8.50;2.80;;;24.20;56.30;;;;;;6144009;28;80909;-67
2022/06/18 06:24:02;;;;;;;7.18;3.22;;;24.20;55.90;;;;;;6125646;28;83026;-67
2022/06/18 06:27:03;;;;;;;5.88;2.85;;;24.20;56.20;;;;;;6132386;28;80860;-66
2022/06/18 06:30:03;;;;;;;5.40;3.00;;;24.20;56.20;;;;;;6136147;28;80611;-66
2022/06/18 06:33:04;;;;;;;7.50;3.50;;;24.20;55.90;;;;;;6133357;28;80349;-67
2022/06/18 06:36:05;;;;;;;8.27;3.20;;;24.20;56.00;;;;;;6130497;28;80519;-65
2022/06/18 06:39:05;;;;;;;4.80;2.88;;;24.10;55.40;;;;;;6133278;28;80496;-66
2022/06/18 06:42:06;;;;;;;9.20;3.67;;;24.10;56.10;;;;;;6127667;28;80704;-65
2022/06/18 06:45:09;;;;;;;4.78;2.60;;;24.10;56.30;;;;;;6134255;28;83710;-66
2022/06/18 06:48:09;;;;;;;8.75;3.05;;;24.10;56.00;;;;;;6136327;28;80885;-66
2022/06/18 06:51:10;;;;;;;8.57;3.05;;;24.10;56.00;;;;;;6136234;28;80111;-67
2022/06/18 06:54:10;;;;;;;5.88;3.03;;;24.10;55.80;;;;;;6135194;28;80412;-65
2022/06/18 06:57:23;;;;;;;14.85;2.88;;;24.20;55.40;;;;;;6126574;28;80816;-66
2022/06/18 07:00:24;;;;;;;5.55;2.67;;;24.30;55.40;;;;;;6126317;28;81646;-66
2022/06/18 07:03:25;;;;;;;5.80;2.53;;;24.30;55.20;;;;;;6129201;28;80742;-64
2022/06/18 07:06:26;;;;;;;5.72;3.80;;;24.30;54.80;;;;;;6128137;28;80841;-66
2022/06/18 07:09:26;;;;;;;7.10;3.55;;;24.20;54.50;;;;;;6119558;28;80332;-67
2022/06/18 07:12:26;;;;;;;5.15;3.00;;;24.10;54.10;;;;;;6122236;28;80086;-66
2022/06/18 07:15:27;;;;;;;8.77;3.33;;;24.20;54.00;;;;;;6134602;28;80708;-66
2022/06/18 07:18:31;;;;;;;7.97;3.20;;;24.10;53.70;;;;;;6134625;28;80832;-66
2022/06/18 07:21:34;;;;;;;4.30;2.63;;;24.20;53.60;;;;;;6127557;28;81394;-68
2022/06/18 07:24:35;;;;;;;6.20;3.22;;;24.20;53.50;;;;;;6135283;28;80670;-66
2022/06/18 07:27:35;;;;;;;5.97;2.53;;;24.20;53.70;;;;;;6134645;28;80299;-66
2022/06/18 07:30:36;;;;;;;6.38;2.95;;;24.30;53.60;;;;;;6141666;28;80397;-65
2022/06/18 07:33:37;;;;;;;3.88;2.05;;;24.30;53.50;;;;;;6130868;28;80603;-64
2022/06/18 07:36:37;;;;;;;6.18;2.90;;;24.10;53.30;;;;;;6124716;28;80962;-67
2022/06/18 07:39:38;;;;;;;6.15;2.92;;;24.10;53.00;;;;;;6134675;28;80659;-66
2022/06/18 07:42:38;;;;;;;5.13;2.30;;;24.20;53.30;;;;;;6132914;28;81055;-66
2022/06/18 07:45:39;;;;;;;6.65;3.40;;;24.30;53.00;;;;;;6128502;28;80204;-66
2022/06/18 07:48:39;;;;;;;6.35;3.05;;;24.10;52.70;;;;;;6127502;28;80240;-67
2022/06/18 07:51:40;;;;;;;6.30;2.95;;;24.00;52.70;;;;;;6126159;28;80569;-67
2022/06/18 07:54:40;;;;;;;7.57;2.58;;;24.00;53.00;;;;;;6129255;28;80446;-66
2022/06/18 07:57:42;;;;;;;5.75;2.47;;;24.00;52.90;;;;;;6129479;28;80348;-67
2022/06/18 08:00:43;;;;;;;5.82;2.58;;;24.10;53.10;;;;;;6127082;28;80735;-66
2022/06/18 08:03:43;;;;;;;4.68;2.65;;;24.20;53.30;;;;;;6129659;28;81033;-66
2022/06/18 08:06:44;;;;;;;7.60;3.08;;;24.30;53.10;;;;;;6124287;28;80354;-66
2022/06/18 08:09:44;;;;;;;4.18;2.22;;;24.30;53.10;;;;;;6127754;28;81690;-66
2022/06/18 08:12:45;;;;;;;4.40;3.28;;;24.40;53.10;;;;;;6133554;28;80767;-66
2022/06/18 08:15:45;;;;;;;4.72;2.45;;;24.40;53.00;;;;;;6130752;28;80776;-67
2022/06/18 08:18:46;;;;;;;2.88;2.47;;;24.30;52.10;;;;;;6116146;28;80875;-67
2022/06/18 08:21:46;;;;;;;5.25;2.60;;;24.30;52.60;;;;;;6129246;28;80732;-67
2022/06/18 08:24:47;;;;;;;4.05;2.67;;;24.40;51.90;;;;;;6132814;28;80353;-67
2022/06/18 08:27:47;;;;;;;5.97;2.90;;;24.40;51.80;;;;;;6140078;28;81556;-67
2022/06/18 08:30:48;;;;;;;3.97;2.47;;;24.40;51.70;;;;;;6126689;28;80981;-67
2022/06/18 08:33:48;;;;;;;6.35;3.08;;;24.40;51.40;;;;;;6124243;28;80565;-66
2022/06/18 08:36:49;;;;;;;4.53;2.50;;;24.30;50.50;;;;;;6122510;28;80688;-66
2022/06/18 08:39:52;;;;;;;5.32;2.40;;;24.40;50.90;;;;;;6127543;28;80427;-66
2022/06/18 08:42:53;;;;;;;3.60;2.20;;;24.30;50.60;;;;;;6126761;28;81357;-66
2022/06/18 08:45:53;;;;;;;4.68;2.63;;;24.40;50.10;;;;;;6129034;28;80598;-67
2022/06/18 08:48:54;;;;;;;3.90;1.95;;;24.40;50.30;;;;;;6128070;28;81233;-66
2022/06/18 08:51:54;;;;;;;3.45;2.20;;;24.50;49.30;;;;;;6129129;28;80210;-66
2022/06/18 08:54:55;;;;;;;4.72;2.20;;;24.50;49.90;;;;;;6138196;28;81310;-66
2022/06/18 08:57:55;;;;;;;2.58;1.95;;;24.60;50.00;;;;;;6137604;28;80888;-66
2022/06/18 09:00:56;;;;;;;5.28;2.00;;;24.50;49.50;;;;;;6137379;28;80551;-66
2022/06/18 09:03:58;;;;;;;1.95;1.75;;;24.60;49.90;;;;;;6138309;28;80486;-65
2022/06/18 09:06:59;;;;;;;3.03;2.00;;;24.70;50.10;;;;;;6131417;28;80782;-65
2022/06/18 09:09:59;;;;;;;4.22;2.20;;;24.70;50.40;;;;;;6117103;28;80156;-66
2022/06/18 09:13:00;;;;;;;4.25;2.00;;;24.70;49.70;;;;;;6117234;28;82249;-66
2022/06/18 09:16:00;;;;;;;2.45;1.88;;;24.70;49.70;;;;;;6128667;28;83711;-67
2022/06/18 09:19:01;;;;;;;2.97;1.85;;;24.80;50.00;;;;;;6128078;28;80570;-66
2022/06/18 09:22:01;;;;;;;3.28;2.10;;;24.80;49.10;;;;;;6126909;28;80549;-66
2022/06/18 09:25:02;;;;;;;5.43;1.92;;;24.90;49.70;;;;;;6124914;28;80349;-66
2022/06/18 09:28:03;;;;;;;2.47;1.98;;;24.90;49.70;;;;;;6144720;28;82217;-66
2022/06/18 09:31:03;;;;;;;4.70;2.25;;;24.90;49.50;;;;;;6129578;28;80454;-66
2022/06/18 09:34:04;;;;;;;2.65;1.70;;;24.90;49.60;;;;;;6136537;28;81582;-66
2022/06/18 09:37:04;;;;;;;4.18;2.10;;;24.90;49.30;;;;;;6136911;28;80028;-66
2022/06/18 09:40:05;;;;;;;4.15;1.77;;;24.90;49.40;;;;;;6137153;28;81366;-65
2022/06/18 09:43:05;;;;;;;3.58;1.77;;;25.00;48.90;;;;;;6136017;28;80415;-66
2022/06/18 09:46:06;;;;;;;4.28;1.98;;;25.00;48.10;;;;;;6134618;28;80871;-66
2022/06/18 09:49:06;;;;;;;3.97;2.10;;;24.90;48.20;;;;;;6136152;28;80340;-66
2022/06/18 09:52:07;;;;;;;3.30;2.20;;;25.00;48.10;;;;;;6132266;28;81055;-66
2022/06/18 09:55:07;;;;;;;5.50;2.33;;;25.00;48.50;;;;;;6136511;28;80672;-67
2022/06/18 09:58:08;;;;;;;3.15;1.90;;;25.00;48.60;;;;;;6136270;28;80994;-67
2022/06/18 10:01:08;;;;;;;4.05;2.35;;;25.10;48.10;;;;;;6122882;28;80458;-66
2022/06/18 10:07:28;;;;;;;11.45;5.18;;;25.10;49.60;;;;;;6137941;28;80727;-67
2022/06/18 10:10:29;;;;;;;19.60;5.05;;;25.10;49.40;;;;;;6145582;28;81439;-65
2022/06/18 10:13:29;;;;;;;13.55;5.47;;;25.10;49.70;;;;;;6133353;28;80379;-66
2022/06/18 10:16:30;;;;;;;15.57;5.38;;;25.10;50.20;;;;;;6140664;28;80588;-67
2022/06/18 10:19:30;;;;;;;15.48;4.32;;;25.20;50.30;;;;;;6136543;28;80416;-67
2022/06/18 10:22:31;;;;;;;5.82;2.40;;;25.20;50.40;;;;;;6136266;28;84910;-64
2022/06/18 10:25:31;;;;;;;2.85;2.08;;;25.20;47.60;;;;;;6132486;28;80194;-66
2022/06/18 10:28:32;;;;;;;2.78;1.95;;;25.20;46.40;;;;;;6136404;28;80459;-66
2022/06/18 10:31:32;;;;;;;5.63;2.38;;;25.20;45.60;;;;;;6130925;28;80462;-66
2022/06/18 10:34:32;;;;;;;2.80;1.55;;;25.30;46.20;;;;;;6135022;28;80580;-67
2022/06/18 10:37:33;;;;;;;1.63;1.38;;;25.30;46.00;;;;;;6126159;28;80506;-67
2022/06/18 10:40:34;;;;;;;4.38;1.75;;;25.30;44.80;;;;;;6136110;28;80824;-66
2022/06/18 10:43:34;;;;;;;2.92;1.50;;;25.30;45.10;;;;;;6146586;28;80732;-66
2022/06/18 10:46:34;;;;;;;1.83;1.67;;;25.30;44.90;;;;;;6134037;28;80882;-66
2022/06/18 10:49:35;;;;;;;2.92;1.63;;;25.30;45.50;;;;;;6134605;28;83311;-66
2022/06/18 10:52:36;;;;;;;1.90;1.55;;;25.40;45.80;;;;;;6134740;28;80322;-66
2022/06/18 10:55:37;;;;;;;26.02;2.85;;;25.40;46.30;;;;;;6135988;28;80455;-63
2022/06/18 10:58:37;;;;;;;37.13;4.20;;;25.40;46.20;;;;;;6134311;28;80507;-64
2022/06/18 11:01:44;;;;;;;15.30;2.40;;;25.50;45.30;;;;;;6130838;28;81582;-65
2022/06/18 11:04:44;;;;;;;9.18;2.53;;;25.50;46.00;;;;;;6130648;28;80416;-65
2022/06/18 11:07:45;;;;;;;5.80;1.52;;;25.50;45.40;;;;;;6130694;28;80388;-64
2022/06/18 11:10:45;;;;;;;3.95;1.80;;;25.70;45.80;;;;;;6134852;28;80271;-67
2022/06/18 11:13:48;;;;;;;2.58;1.80;;;25.70;46.10;;;;;;6132430;28;80428;-68
2022/06/18 11:16:48;;;;;;;12.15;2.10;;;25.80;46.20;;;;;;6132724;28;80511;-64
2022/06/18 11:19:49;;;;;;;3.53;2.03;;;25.70;46.70;;;;;;6135437;28;80787;-72
2022/06/18 11:22:49;;;;;;;3.72;1.65;;;25.70;47.00;;;;;;6134193;28;81110;-68
2022/06/18 11:25:50;;;;;;;2.88;2.00;;;25.70;46.10;;;;;;6136032;28;82044;-68
2022/06/18 11:28:50;;;;;;;7.47;2.25;;;25.70;45.30;;;;;;6135141;28;80324;-68
2022/06/18 11:31:51;;;;;;;6.65;1.98;;;25.70;46.80;;;;;;6126858;28;80834;-67
2022/06/18 11:34:51;;;;;;;15.05;3.17;;;25.70;47.10;;;;;;6142365;28;81733;-67
2022/06/18 11:37:52;;;;;;;7.18;2.92;;;25.70;48.10;;;;;;6130978;28;81437;-69
2022/06/18 11:40:53;;;;;;;6.70;3.08;;;25.70;48.40;;;;;;6132263;28;81708;-71
2022/06/18 11:43:53;;;;;;;7.82;2.20;;;25.70;48.40;;;;;;6132358;28;81021;-70
2022/06/18 11:46:53;;;;;;;15.68;2.30;;;25.80;46.80;;;;;;6133517;28;80738;-65
2022/06/18 11:49:56;;;;;;;2.63;1.63;;;25.80;47.20;;;;;;6130107;28;80421;-69
2022/06/18 11:52:57;;;;;;;7.80;2.60;;;25.90;46.90;;;;;;6129388;28;80432;-68
2022/06/18 11:55:57;;;;;;;3.17;2.20;;;25.80;48.10;;;;;;6133871;28;80437;-68
2022/06/18 11:58:58;;;;;;;6.80;2.47;;;25.90;48.60;;;;;;6131235;28;80527;-70
2022/06/18 12:01:58;;;;;;;3.38;2.15;;;25.90;49.40;;;;;;6132026;28;81315;-66
2022/06/18 12:04:59;;;;;;;15.68;2.47;;;25.80;49.00;;;;;;6127963;28;81950;-65
2022/06/18 12:07:59;;;;;;;4.38;2.10;;;25.80;48.70;;;;;;6126748;28;80384;-65
2022/06/18 12:11:00;;;;;;;3.67;2.30;;;25.80;48.10;;;;;;6131185;28;80311;-66
2022/06/18 12:14:00;;;;;;;4.88;2.05;;;25.80;47.60;;;;;;6125714;28;80564;-64
2022/06/18 12:17:01;;;;;;;8.32;3.42;;;25.70;48.40;;;;;;6137199;28;80132;-65
2022/06/18 12:20:02;;;;;;;7.88;2.25;;;25.70;48.80;;;;;;6137603;28;80559;-66
2022/06/18 12:23:02;;;;;;;6.43;2.28;;;25.70;47.20;;;;;;6143888;28;81478;-67
2022/06/18 12:26:03;;;;;;;12.57;4.65;;;25.80;47.30;;;;;;6134389;28;81134;-67
2022/06/18 12:29:03;;;;;;;12.63;4.53;;;25.80;46.50;;;;;;6130523;28;80546;-68
2022/06/18 12:32:04;;;;;;;4.40;2.95;;;25.80;47.60;;;;;;6131495;28;80413;-67
2022/06/18 12:35:04;;;;;;;6.18;2.50;;;25.90;47.50;;;;;;6129947;28;79972;-70
2022/06/18 12:38:05;;;;;;;3.30;1.95;;;25.90;47.80;;;;;;6126581;28;81242;-68
2022/06/18 12:41:05;;;;;;;4.63;2.13;;;25.90;47.50;;;;;;6122072;28;81453;-69
2022/06/18 12:44:06;;;;;;;2.45;1.73;;;25.90;47.50;;;;;;6132479;28;80337;-68
2022/06/18 12:47:06;;;;;;;3.35;1.83;;;26.00;46.20;;;;;;6132524;28;81596;-70
2022/06/18 12:50:07;;;;;;;10.27;1.90;;;26.10;46.70;;;;;;6131254;28;80647;-71
2022/06/18 12:53:07;;;;;;;6.80;1.70;;;26.10;46.60;;;;;;6122417;28;81003;-74
2022/06/18 12:56:08;;;;;;;3.60;1.90;;;26.10;47.00;;;;;;6122301;28;80902;-69
2022/06/18 12:59:08;;;;;;;3.33;2.10;;;26.10;46.90;;;;;;6128578;28;80738;-67
2022/06/18 13:02:09;;;;;;;5.75;2.20;;;26.10;46.90;;;;;;6129252;28;80465;-70
2022/06/18 13:05:09;;;;;;;4.72;2.15;;;26.20;46.00;;;;;;6134700;28;80761;-71
2022/06/18 13:08:10;;;;;;;2.42;1.75;;;26.30;44.90;;;;;;6129553;28;81491;-68
2022/06/18 13:11:10;;;;;;;7.10;1.85;;;26.40;45.50;;;;;;6124951;28;80842;-69
2022/06/18 13:14:11;;;;;;;4.00;1.70;;;26.40;44.70;;;;;;6130351;28;80608;-68
2022/06/18 13:17:11;;;;;;;5.78;1.77;;;26.40;45.40;;;;;;6117951;28;80438;-67
2022/06/18 13:20:12;;;;;;;3.88;1.90;;;26.30;46.10;;;;;;6121942;28;81211;-70
2022/06/18 13:29:51;;;;;;;15.80;2.38;;;26.10;48.10;;;;;;6122456;28;81462;-70
2022/06/18 13:32:51;;;;;;;10.88;3.63;;;26.10;48.50;;;;;;6134530;28;80369;-67
2022/06/18 13:35:52;;;;;;;4.68;2.65;;;26.00;48.70;;;;;;6136988;28;80434;-71
2022/06/18 13:38:52;;;;;;;4.60;2.83;;;26.10;47.00;;;;;;6141112;28;80471;-69
2022/06/18 13:41:53;;;;;;;12.48;3.30;;;26.00;47.80;;;;;;6136459;28;80608;-69
2022/06/18 13:44:53;;;;;;;9.07;3.47;;;26.00;48.40;;;;;;6138148;28;80596;-69
2022/06/18 13:47:54;;;;;;;15.52;2.60;;;26.10;48.50;;;;;;6141418;28;80714;-68
2022/06/18 13:50:55;;;;;;;2.95;2.47;;;26.10;48.70;;;;;;6147395;28;80299;-69
2022/06/18 13:53:55;;;;;;;6.57;2.33;;;26.00;48.60;;;;;;6145664;28;80434;-70
2022/06/18 13:56:56;;;;;;;4.82;2.35;;;26.00;48.40;;;;;;6141999;28;80264;-70
2022/06/18 13:59:56;;;;;;;4.07;2.60;;;26.10;47.70;;;;;;6136336;28;80606;-69
2022/06/18 14:02:57;;;;;;;2.83;2.22;;;26.10;48.20;;;;;;6135266;28;80797;-69
2022/06/18 14:05:57;;;;;;;3.47;2.17;;;26.10;48.00;;;;;;6135211;28;87944;-69
2022/06/18 14:08:57;;;;;;;2.55;1.98;;;26.00;47.60;;;;;;6123799;28;80445;-67
2022/06/18 14:11:58;;;;;;;5.57;2.60;;;26.10;47.90;;;;;;6131845;28;80618;-69
2022/06/18 14:14:58;;;;;;;3.38;2.28;;;26.10;48.20;;;;;;6146942;28;80653;-69
2022/06/18 14:17:59;;;;;;;2.10;1.85;;;26.10;48.00;;;;;;6145325;28;80454;-68
2022/06/18 14:20:59;;;;;;;2.80;2.17;;;26.10;47.60;;;;;;6143502;28;81723;-69
2022/06/18 14:24:00;;;;;;;3.05;2.08;;;26.10;47.70;;;;;;6137139;28;80400;-69
2022/06/18 14:27:00;;;;;;;4.53;2.30;;;26.10;47.80;;;;;;6135475;28;80433;-68
2022/06/18 14:30:01;;;;;;;2.90;2.08;;;26.10;47.50;;;;;;6136277;28;81713;-68
2022/06/18 14:33:01;;;;;;;1.98;1.85;;;26.00;47.70;;;;;;6135953;28;81563;-68
2022/06/18 14:36:02;;;;;;;3.85;2.08;;;26.00;47.80;;;;;;6135939;28;79960;-68
2022/06/18 14:39:02;;;;;;;4.72;2.30;;;25.90;48.10;;;;;;6135712;28;81505;-68
2022/06/18 14:42:03;;;;;;;3.67;2.03;;;25.90;48.30;;;;;;6149858;28;80812;-68
2022/06/18 14:45:03;;;;;;;4.90;2.05;;;25.90;48.30;;;;;;6128706;28;81519;-69
2022/06/18 14:48:04;;;;;;;8.05;2.40;;;25.90;48.90;;;;;;6133077;28;80671;-69
2022/06/18 14:51:04;;;;;;;5.30;1.80;;;25.90;48.50;;;;;;6135223;28;80437;-68
2022/06/18 14:54:05;;;;;;;2.35;1.95;;;25.90;48.40;;;;;;6136327;28;80294;-68
2022/06/18 14:57:05;;;;;;;4.30;2.25;;;25.90;48.40;;;;;;6131634;28;80409;-70
2022/06/18 15:00:06;;;;;;;3.28;2.17;;;25.90;48.20;;;;;;6132227;28;80468;-67
2022/06/18 15:03:06;;;;;;;2.13;1.90;;;25.90;48.70;;;;;;6120302;28;80327;-68
2022/06/18 15:06:06;;;;;;;2.67;2.20;;;25.90;48.90;;;;;;6125360;28;80355;-67
2022/06/18 15:09:07;;;;;;;6.75;2.10;;;25.90;48.80;;;;;;6123359;28;81419;-67
2022/06/18 15:12:08;;;;;;;2.70;2.15;;;25.90;48.60;;;;;;6127386;28;84395;-67
2022/06/18 15:15:12;;;;;;;3.28;1.80;;;25.80;48.40;;;;;;6118621;28;80923;-66
2022/06/18 15:18:25;;;;;;;2.47;1.90;;;25.80;48.80;;;;;;6135233;28;81849;-69
2022/06/18 15:21:35;;;;;;;4.22;1.85;;;25.80;49.10;;;;;;6133688;28;80390;-69
2022/06/18 15:27:46;;;;;;;2.08;1.85;;;25.80;48.80;;;;;;6134726;28;80306;-69
2022/06/18 15:30:47;;;;;;;2.45;1.92;;;25.80;47.00;;;;;;6146704;28;80222;-66
2022/06/18 15:33:47;;;;;;;2.10;1.63;;;25.90;46.80;;;;;;6133206;28;81245;-67
2022/06/18 15:36:48;;;;;;;3.33;2.17;;;25.90;46.90;;;;;;6126984;28;80369;-65
2022/06/18 15:39:48;;;;;;;3.00;2.22;;;25.90;46.80;;;;;;6128361;28;81003;-69
2022/06/18 15:42:49;;;;;;;5.60;2.60;;;25.90;47.40;;;;;;6136605;28;80313;-69
2022/06/18 15:45:49;;;;;;;3.33;2.28;;;25.90;47.50;;;;;;6134433;28;81574;-68
2022/06/18 15:48:50;;;;;;;2.17;1.95;;;25.90;47.60;;;;;;6139170;28;80601;-69
2022/06/18 15:51:50;;;;;;;2.95;2.30;;;25.90;48.00;;;;;;6131843;28;80514;-69
2022/06/18 15:54:51;;;;;;;7.72;2.05;;;25.90;47.80;;;;;;6133776;28;80073;-69
2022/06/18 15:57:51;;;;;;;3.88;2.35;;;25.90;48.00;;;;;;6120807;28;81794;-68
2022/06/18 16:00:52;;;;;;;6.03;3.25;;;25.90;48.30;;;;;;6131005;28;80438;-69